sensor_id;sensor_type;location;lat;lon;timestamp;P1;durP1;ratioP1;P2;durP2;ratioP2
27925;SDS011;15267;47.838;12.128;2022-09-09T00:00:44;1.42;;;0.57;;
27925;SDS011;15267;47.838;12.128;2022-09-09T00:03:17;1.63;;;0.50;;
27925;SDS011;15267;47.838;12.128;2022-09-09T00:05:59;2.80;;;0.60;;
27925;SDS011;15267;47.838;12.128;2022-09-09T00:09:10;0.57;;;0.50;;
27925;SDS011;15267;47.838;12.128;2022-09-09T00:11:17;0.95;;;0.60;;
27925;SDS011;15267;47.838;12.128;2022-09-09T00:13:48;3.90;;;0.52;;
27925;SDS011;15267;47.838;12.128;2022-09-09T00:21:30;1.05;;;0.50;;
27925;SDS011;15267;47.838;12.128;2022-09-09T00:23:58;2.50;;;0.60;;
27925;SDS011;15267;47.838;12.128;2022-09-09T00:26:44;1.70;;;0.60;;
27925;SDS011;15267;47.838;12.128;2022-09-09T00:31:40;5.53;;;0.90;;
27925;SDS011;15267;47.838;12.128;2022-09-09T00:34:10;1.38;;;0.73;;
27925;SDS011;15267;47.838;12.128;2022-09-09T00:36:38;0.80;;;0.52;;
27925;SDS011;15267;47.838;12.128;2022-09-09T00:39:04;0.93;;;0.70;;
27925;SDS011;15267;47.838;12.128;2022-09-09T00:41:39;1.38;;;0.50;;
27925;SDS011;15267;47.838;12.128;2022-09-09T00:46:56;1.77;;;0.70;;
27925;SDS011;15267;47.838;12.128;2022-09-09T00:52:26;1.75;;;0.60;;
27925;SDS011;15267;47.838;12.128;2022-09-09T00:57:35;1.88;;;0.70;;
27925;SDS011;15267;47.838;12.128;2022-09-09T01:02:55;1.08;;;0.60;;
27925;SDS011;15267;47.838;12.128;2022-09-09T01:07:49;1.33;;;0.68;;
27925;SDS011;15267;47.838;12.128;2022-09-09T01:13:00;2.67;;;0.65;;
27925;SDS011;15267;47.838;12.128;2022-09-09T01:15:28;2.70;;;0.60;;
27925;SDS011;15267;47.838;12.128;2022-09-09T01:18:06;1.45;;;0.55;;
27925;SDS011;15267;47.838;12.128;2022-09-09T01:20:52;1.88;;;0.57;;
27925;SDS011;15267;47.838;12.128;2022-09-09T01:28:37;2.08;;;0.63;;
27925;SDS011;15267;47.838;12.128;2022-09-09T01:31:05;0.73;;;0.60;;
27925;SDS011;15267;47.838;12.128;2022-09-09T01:33:32;1.02;;;0.57;;
27925;SDS011;15267;47.838;12.128;2022-09-09T01:36:12;2.33;;;0.65;;
27925;SDS011;15267;47.838;12.128;2022-09-09T01:38:39;1.92;;;0.60;;
27925;SDS011;15267;47.838;12.128;2022-09-09T01:41:05;3.03;;;0.77;;
27925;SDS011;15267;47.838;12.128;2022-09-09T01:43:31;3.75;;;0.80;;
27925;SDS011;15267;47.838;12.128;2022-09-09T01:45:59;1.52;;;0.63;;
27925;SDS011;15267;47.838;12.128;2022-09-09T01:48:25;5.65;;;0.93;;
27925;SDS011;15267;47.838;12.128;2022-09-09T01:50:51;1.58;;;0.90;;
27925;SDS011;15267;47.838;12.128;2022-09-09T01:53:18;3.53;;;0.90;;
27925;SDS011;15267;47.838;12.128;2022-09-09T01:58:24;2.05;;;0.80;;
27925;SDS011;15267;47.838;12.128;2022-09-09T02:03:21;3.22;;;0.70;;
27925;SDS011;15267;47.838;12.128;2022-09-09T02:06:35;2.15;;;0.80;;
27925;SDS011;15267;47.838;12.128;2022-09-09T02:08:48;1.90;;;0.60;;
27925;SDS011;15267;47.838;12.128;2022-09-09T02:11:16;2.70;;;0.80;;
27925;SDS011;15267;47.838;12.128;2022-09-09T02:13:43;2.90;;;0.75;;
27925;SDS011;15267;47.838;12.128;2022-09-09T02:16:12;0.75;;;0.70;;
27925;SDS011;15267;47.838;12.128;2022-09-09T02:18:48;2.40;;;0.70;;
27925;SDS011;15267;47.838;12.128;2022-09-09T02:21:16;2.38;;;0.88;;
27925;SDS011;15267;47.838;12.128;2022-09-09T02:23:43;2.20;;;0.80;;
27925;SDS011;15267;47.838;12.128;2022-09-09T02:26:11;1.40;;;0.70;;
27925;SDS011;15267;47.838;12.128;2022-09-09T02:28:39;2.35;;;0.65;;
27925;SDS011;15267;47.838;12.128;2022-09-09T02:31:07;2.53;;;0.80;;
27925;SDS011;15267;47.838;12.128;2022-09-09T02:33:36;1.48;;;0.65;;
27925;SDS011;15267;47.838;12.128;2022-09-09T02:36:04;0.75;;;0.60;;
27925;SDS011;15267;47.838;12.128;2022-09-09T02:38:33;2.17;;;0.70;;
27925;SDS011;15267;47.838;12.128;2022-09-09T02:41:00;0.90;;;0.80;;
27925;SDS011;15267;47.838;12.128;2022-09-09T02:43:31;2.35;;;0.70;;
27925;SDS011;15267;47.838;12.128;2022-09-09T02:46:01;3.10;;;0.60;;
27925;SDS011;15267;47.838;12.128;2022-09-09T02:48:33;3.50;;;0.70;;
27925;SDS011;15267;47.838;12.128;2022-09-09T02:53:33;2.47;;;0.65;;
27925;SDS011;15267;47.838;12.128;2022-09-09T02:56:13;2.17;;;0.77;;
27925;SDS011;15267;47.838;12.128;2022-09-09T02:58:41;1.10;;;0.70;;
27925;SDS011;15267;47.838;12.128;2022-09-09T03:01:07;2.00;;;0.93;;
27925;SDS011;15267;47.838;12.128;2022-09-09T03:03:33;1.73;;;0.80;;
27925;SDS011;15267;47.838;12.128;2022-09-09T03:06:00;2.22;;;0.80;;
27925;SDS011;15267;47.838;12.128;2022-09-09T03:08:26;3.75;;;0.70;;
27925;SDS011;15267;47.838;12.128;2022-09-09T03:10:53;2.85;;;0.70;;
27925;SDS011;15267;47.838;12.128;2022-09-09T03:13:19;2.83;;;0.73;;
27925;SDS011;15267;47.838;12.128;2022-09-09T03:15:47;1.85;;;0.70;;
27925;SDS011;15267;47.838;12.128;2022-09-09T03:18:13;2.13;;;0.70;;
27925;SDS011;15267;47.838;12.128;2022-09-09T03:20:39;4.82;;;0.70;;
27925;SDS011;15267;47.838;12.128;2022-09-09T03:23:07;0.93;;;0.75;;
27925;SDS011;15267;47.838;12.128;2022-09-09T03:25:33;2.47;;;0.70;;
27925;SDS011;15267;47.838;12.128;2022-09-09T03:27:59;2.65;;;0.90;;
27925;SDS011;15267;47.838;12.128;2022-09-09T03:30:25;1.40;;;0.70;;
27925;SDS011;15267;47.838;12.128;2022-09-09T03:32:52;1.95;;;0.80;;
27925;SDS011;15267;47.838;12.128;2022-09-09T03:35:18;3.85;;;0.70;;
27925;SDS011;15267;47.838;12.128;2022-09-09T03:37:44;5.72;;;0.82;;
27925;SDS011;15267;47.838;12.128;2022-09-09T03:40:10;2.45;;;0.75;;
27925;SDS011;15267;47.838;12.128;2022-09-09T03:42:37;2.28;;;0.70;;
27925;SDS011;15267;47.838;12.128;2022-09-09T03:45:04;1.92;;;0.75;;
27925;SDS011;15267;47.838;12.128;2022-09-09T03:47:30;2.67;;;0.70;;
27925;SDS011;15267;47.838;12.128;2022-09-09T03:49:56;2.33;;;0.80;;
27925;SDS011;15267;47.838;12.128;2022-09-09T03:52:22;2.72;;;0.70;;
27925;SDS011;15267;47.838;12.128;2022-09-09T03:54:51;1.95;;;0.80;;
27925;SDS011;15267;47.838;12.128;2022-09-09T03:57:17;1.20;;;0.65;;
27925;SDS011;15267;47.838;12.128;2022-09-09T03:59:43;3.30;;;0.70;;
27925;SDS011;15267;47.838;12.128;2022-09-09T04:02:09;1.55;;;0.70;;
27925;SDS011;15267;47.838;12.128;2022-09-09T04:04:35;2.40;;;0.68;;
27925;SDS011;15267;47.838;12.128;2022-09-09T04:07:01;2.53;;;0.90;;
27925;SDS011;15267;47.838;12.128;2022-09-09T04:09:27;0.95;;;0.55;;
27925;SDS011;15267;47.838;12.128;2022-09-09T04:11:53;1.17;;;0.60;;
27925;SDS011;15267;47.838;12.128;2022-09-09T04:14:20;1.45;;;0.80;;
27925;SDS011;15267;47.838;12.128;2022-09-09T04:16:47;2.13;;;0.77;;
27925;SDS011;15267;47.838;12.128;2022-09-09T04:19:13;1.15;;;0.70;;
27925;SDS011;15267;47.838;12.128;2022-09-09T04:21:39;4.68;;;0.80;;
27925;SDS011;15267;47.838;12.128;2022-09-09T04:24:08;1.17;;;0.80;;
27925;SDS011;15267;47.838;12.128;2022-09-09T04:26:35;1.23;;;0.90;;
27925;SDS011;15267;47.838;12.128;2022-09-09T04:29:04;2.60;;;0.65;;
27925;SDS011;15267;47.838;12.128;2022-09-09T04:31:31;1.10;;;0.70;;
27925;SDS011;15267;47.838;12.128;2022-09-09T04:33:57;0.60;;;0.60;;
27925;SDS011;15267;47.838;12.128;2022-09-09T04:36:27;0.88;;;0.57;;
27925;SDS011;15267;47.838;12.128;2022-09-09T04:38:53;1.85;;;0.85;;
27925;SDS011;15267;47.838;12.128;2022-09-09T04:41:19;2.13;;;0.77;;
27925;SDS011;15267;47.838;12.128;2022-09-09T04:43:45;4.13;;;0.63;;
27925;SDS011;15267;47.838;12.128;2022-09-09T04:46:11;2.38;;;0.80;;
27925;SDS011;15267;47.838;12.128;2022-09-09T04:48:37;1.05;;;0.70;;
27925;SDS011;15267;47.838;12.128;2022-09-09T04:51:05;0.80;;;0.57;;
27925;SDS011;15267;47.838;12.128;2022-09-09T04:53:31;2.33;;;0.85;;
27925;SDS011;15267;47.838;12.128;2022-09-09T04:56:03;0.90;;;0.70;;
27925;SDS011;15267;47.838;12.128;2022-09-09T04:58:29;1.02;;;0.65;;
27925;SDS011;15267;47.838;12.128;2022-09-09T05:01:02;3.97;;;1.10;;
27925;SDS011;15267;47.838;12.128;2022-09-09T05:03:28;2.60;;;1.42;;
27925;SDS011;15267;47.838;12.128;2022-09-09T05:05:53;3.70;;;1.60;;
27925;SDS011;15267;47.838;12.128;2022-09-09T05:08:21;2.63;;;1.45;;
27925;SDS011;15267;47.838;12.128;2022-09-09T05:10:47;3.05;;;1.80;;
27925;SDS011;15267;47.838;12.128;2022-09-09T05:13:13;2.95;;;1.40;;
27925;SDS011;15267;47.838;12.128;2022-09-09T05:15:39;0.77;;;0.70;;
27925;SDS011;15267;47.838;12.128;2022-09-09T05:18:08;2.60;;;0.90;;
27925;SDS011;15267;47.838;12.128;2022-09-09T05:20:33;3.20;;;0.80;;
27925;SDS011;15267;47.838;12.128;2022-09-09T05:22:59;2.08;;;0.82;;
27925;SDS011;15267;47.838;12.128;2022-09-09T05:25:25;1.85;;;0.70;;
27925;SDS011;15267;47.838;12.128;2022-09-09T05:27:51;2.10;;;0.70;;
27925;SDS011;15267;47.838;12.128;2022-09-09T05:30:18;3.20;;;0.95;;
27925;SDS011;15267;47.838;12.128;2022-09-09T05:32:44;4.32;;;0.85;;
27925;SDS011;15267;47.838;12.128;2022-09-09T05:35:11;0.90;;;0.68;;
27925;SDS011;15267;47.838;12.128;2022-09-09T05:37:38;2.33;;;0.93;;
27925;SDS011;15267;47.838;12.128;2022-09-09T05:40:04;3.40;;;0.75;;
27925;SDS011;15267;47.838;12.128;2022-09-09T05:42:31;1.42;;;0.73;;
27925;SDS011;15267;47.838;12.128;2022-09-09T05:44:57;2.08;;;0.80;;
27925;SDS011;15267;47.838;12.128;2022-09-09T05:47:23;2.50;;;0.60;;
27925;SDS011;15267;47.838;12.128;2022-09-09T05:49:49;1.30;;;0.70;;
27925;SDS011;15267;47.838;12.128;2022-09-09T05:52:15;2.88;;;0.80;;
27925;SDS011;15267;47.838;12.128;2022-09-09T05:54:41;1.75;;;0.70;;
27925;SDS011;15267;47.838;12.128;2022-09-09T05:57:08;1.98;;;0.70;;
27925;SDS011;15267;47.838;12.128;2022-09-09T05:59:34;2.33;;;0.73;;
27925;SDS011;15267;47.838;12.128;2022-09-09T06:02:00;0.88;;;0.60;;
27925;SDS011;15267;47.838;12.128;2022-09-09T06:04:26;3.25;;;0.90;;
27925;SDS011;15267;47.838;12.128;2022-09-09T06:06:52;2.00;;;0.63;;
27925;SDS011;15267;47.838;12.128;2022-09-09T06:09:17;0.98;;;0.70;;
27925;SDS011;15267;47.838;12.128;2022-09-09T06:11:44;2.28;;;0.73;;
27925;SDS011;15267;47.838;12.128;2022-09-09T06:14:10;2.50;;;0.70;;
27925;SDS011;15267;47.838;12.128;2022-09-09T06:16:36;3.35;;;0.80;;
27925;SDS011;15267;47.838;12.128;2022-09-09T06:19:03;0.65;;;0.60;;
27925;SDS011;15267;47.838;12.128;2022-09-09T06:21:36;1.27;;;0.70;;
27925;SDS011;15267;47.838;12.128;2022-09-09T06:24:02;2.08;;;0.60;;
27925;SDS011;15267;47.838;12.128;2022-09-09T06:26:38;2.05;;;0.80;;
27925;SDS011;15267;47.838;12.128;2022-09-09T06:29:07;1.33;;;0.60;;
27925;SDS011;15267;47.838;12.128;2022-09-09T06:31:34;2.75;;;0.70;;
27925;SDS011;15267;47.838;12.128;2022-09-09T06:34:00;1.10;;;0.75;;
27925;SDS011;15267;47.838;12.128;2022-09-09T06:36:27;1.80;;;0.75;;
27925;SDS011;15267;47.838;12.128;2022-09-09T06:38:54;3.67;;;0.95;;
27925;SDS011;15267;47.838;12.128;2022-09-09T06:41:20;2.20;;;0.93;;
27925;SDS011;15267;47.838;12.128;2022-09-09T06:43:47;4.00;;;1.15;;
27925;SDS011;15267;47.838;12.128;2022-09-09T06:46:14;2.10;;;0.90;;
27925;SDS011;15267;47.838;12.128;2022-09-09T06:48:41;4.85;;;1.02;;
27925;SDS011;15267;47.838;12.128;2022-09-09T06:51:09;1.90;;;0.80;;
27925;SDS011;15267;47.838;12.128;2022-09-09T06:53:36;3.45;;;0.80;;
27925;SDS011;15267;47.838;12.128;2022-09-09T06:56:17;3.10;;;0.82;;
27925;SDS011;15267;47.838;12.128;2022-09-09T06:58:43;1.40;;;0.90;;
27925;SDS011;15267;47.838;12.128;2022-09-09T07:01:10;2.75;;;0.80;;
27925;SDS011;15267;47.838;12.128;2022-09-09T07:03:37;2.90;;;0.80;;
27925;SDS011;15267;47.838;12.128;2022-09-09T07:06:03;2.78;;;0.88;;
27925;SDS011;15267;47.838;12.128;2022-09-09T07:08:29;2.15;;;0.85;;
27925;SDS011;15267;47.838;12.128;2022-09-09T07:11:01;1.38;;;0.68;;
27925;SDS011;15267;47.838;12.128;2022-09-09T07:13:29;1.58;;;0.70;;
27925;SDS011;15267;47.838;12.128;2022-09-09T07:16:02;1.30;;;0.77;;
27925;SDS011;15267;47.838;12.128;2022-09-09T07:18:28;2.80;;;0.80;;
27925;SDS011;15267;47.838;12.128;2022-09-09T07:20:55;2.50;;;0.80;;
27925;SDS011;15267;47.838;12.128;2022-09-09T07:23:21;1.10;;;0.70;;
27925;SDS011;15267;47.838;12.128;2022-09-09T07:25:47;2.20;;;0.90;;
27925;SDS011;15267;47.838;12.128;2022-09-09T07:28:14;1.67;;;0.75;;
27925;SDS011;15267;47.838;12.128;2022-09-09T07:30:40;0.85;;;0.70;;
27925;SDS011;15267;47.838;12.128;2022-09-09T07:33:06;2.15;;;0.70;;
27925;SDS011;15267;47.838;12.128;2022-09-09T07:35:32;1.38;;;0.70;;
27925;SDS011;15267;47.838;12.128;2022-09-09T07:38:00;2.58;;;0.50;;
27925;SDS011;15267;47.838;12.128;2022-09-09T07:40:26;3.15;;;0.70;;
27925;SDS011;15267;47.838;12.128;2022-09-09T07:42:53;2.13;;;0.68;;
27925;SDS011;15267;47.838;12.128;2022-09-09T07:45:19;4.35;;;0.80;;
27925;SDS011;15267;47.838;12.128;2022-09-09T07:47:44;1.52;;;0.70;;
27925;SDS011;15267;47.838;12.128;2022-09-09T07:50:10;1.63;;;0.73;;
27925;SDS011;15267;47.838;12.128;2022-09-09T07:52:36;12.75;;;0.93;;
27925;SDS011;15267;47.838;12.128;2022-09-09T07:55:02;5.05;;;1.02;;
27925;SDS011;15267;47.838;12.128;2022-09-09T07:57:29;2.22;;;0.70;;
27925;SDS011;15267;47.838;12.128;2022-09-09T07:59:55;1.42;;;0.80;;
27925;SDS011;15267;47.838;12.128;2022-09-09T08:02:22;3.15;;;1.20;;
27925;SDS011;15267;47.838;12.128;2022-09-09T08:04:48;1.95;;;0.90;;
27925;SDS011;15267;47.838;12.128;2022-09-09T08:07:14;2.47;;;0.90;;
27925;SDS011;15267;47.838;12.128;2022-09-09T08:09:41;2.97;;;0.80;;
27925;SDS011;15267;47.838;12.128;2022-09-09T08:12:09;1.60;;;1.08;;
27925;SDS011;15267;47.838;12.128;2022-09-09T08:14:37;6.05;;;0.80;;
27925;SDS011;15267;47.838;12.128;2022-09-09T08:17:04;1.95;;;0.80;;
27925;SDS011;15267;47.838;12.128;2022-09-09T08:19:31;1.55;;;0.70;;
27925;SDS011;15267;47.838;12.128;2022-09-09T08:21:59;3.47;;;0.70;;
27925;SDS011;15267;47.838;12.128;2022-09-09T08:24:26;2.42;;;0.80;;
27925;SDS011;15267;47.838;12.128;2022-09-09T08:26:52;2.50;;;0.98;;
27925;SDS011;15267;47.838;12.128;2022-09-09T08:29:18;1.75;;;1.00;;
27925;SDS011;15267;47.838;12.128;2022-09-09T08:31:46;1.75;;;0.77;;
27925;SDS011;15267;47.838;12.128;2022-09-09T08:34:13;3.45;;;1.05;;
27925;SDS011;15267;47.838;12.128;2022-09-09T08:36:40;2.22;;;0.80;;
27925;SDS011;15267;47.838;12.128;2022-09-09T08:39:07;3.03;;;0.70;;
27925;SDS011;15267;47.838;12.128;2022-09-09T08:51:36;3.78;;;1.05;;
27925;SDS011;15267;47.838;12.128;2022-09-09T08:54:02;2.10;;;0.90;;
27925;SDS011;15267;47.838;12.128;2022-09-09T08:56:29;0.90;;;0.60;;
27925;SDS011;15267;47.838;12.128;2022-09-09T08:58:56;1.80;;;0.80;;
27925;SDS011;15267;47.838;12.128;2022-09-09T09:01:40;5.03;;;1.20;;
27925;SDS011;15267;47.838;12.128;2022-09-09T09:04:24;2.00;;;1.15;;
27925;SDS011;15267;47.838;12.128;2022-09-09T09:09:55;1.98;;;0.90;;
27925;SDS011;15267;47.838;12.128;2022-09-09T09:12:26;2.35;;;0.90;;
27925;SDS011;15267;47.838;12.128;2022-09-09T09:14:53;4.18;;;1.00;;
27925;SDS011;15267;47.838;12.128;2022-09-09T09:17:23;1.40;;;0.98;;
27925;SDS011;15267;47.838;12.128;2022-09-09T09:19:51;2.03;;;0.77;;
27925;SDS011;15267;47.838;12.128;2022-09-09T09:22:21;3.83;;;0.80;;
27925;SDS011;15267;47.838;12.128;2022-09-09T09:30:10;3.75;;;1.23;;
27925;SDS011;15267;47.838;12.128;2022-09-09T09:32:38;2.53;;;1.00;;
27925;SDS011;15267;47.838;12.128;2022-09-09T09:35:06;6.18;;;1.08;;
27925;SDS011;15267;47.838;12.128;2022-09-09T09:37:35;2.33;;;0.90;;
27925;SDS011;15267;47.838;12.128;2022-09-09T09:40:34;1.83;;;0.95;;
27925;SDS011;15267;47.838;12.128;2022-09-09T09:43:02;1.20;;;1.00;;
27925;SDS011;15267;47.838;12.128;2022-09-09T09:45:35;2.42;;;0.90;;
27925;SDS011;15267;47.838;12.128;2022-09-09T09:48:08;1.58;;;1.10;;
27925;SDS011;15267;47.838;12.128;2022-09-09T09:50:35;2.47;;;1.13;;
27925;SDS011;15267;47.838;12.128;2022-09-09T09:55:54;2.08;;;1.20;;
27925;SDS011;15267;47.838;12.128;2022-09-09T09:58:20;2.42;;;1.35;;
27925;SDS011;15267;47.838;12.128;2022-09-09T10:00:47;4.00;;;1.25;;
27925;SDS011;15267;47.838;12.128;2022-09-09T10:03:30;2.13;;;1.30;;
27925;SDS011;15267;47.838;12.128;2022-09-09T10:05:56;3.47;;;1.55;;
27925;SDS011;15267;47.838;12.128;2022-09-09T10:08:26;2.35;;;1.20;;
27925;SDS011;15267;47.838;12.128;2022-09-09T10:13:39;3.28;;;1.40;;
27925;SDS011;15267;47.838;12.128;2022-09-09T10:18:38;4.55;;;1.60;;
27925;SDS011;15267;47.838;12.128;2022-09-09T10:21:15;6.82;;;1.77;;
27925;SDS011;15267;47.838;12.128;2022-09-09T10:23:50;3.45;;;1.50;;
27925;SDS011;15267;47.838;12.128;2022-09-09T10:34:06;3.05;;;1.98;;
27925;SDS011;15267;47.838;12.128;2022-09-09T10:36:39;4.47;;;1.88;;
27925;SDS011;15267;47.838;12.128;2022-09-09T10:41:42;4.35;;;1.73;;
27925;SDS011;15267;47.838;12.128;2022-09-09T10:57:17;3.60;;;1.70;;
27925;SDS011;15267;47.838;12.128;2022-09-09T10:59:47;2.97;;;1.77;;
27925;SDS011;15267;47.838;12.128;2022-09-09T11:02:21;5.57;;;1.90;;
27925;SDS011;15267;47.838;12.128;2022-09-09T11:07:26;4.18;;;1.90;;
27925;SDS011;15267;47.838;12.128;2022-09-09T11:09:54;3.28;;;1.70;;
27925;SDS011;15267;47.838;12.128;2022-09-09T11:12:22;3.60;;;1.85;;
27925;SDS011;15267;47.838;12.128;2022-09-09T11:14:50;4.93;;;1.75;;
27925;SDS011;15267;47.838;12.128;2022-09-09T11:17:18;3.28;;;1.90;;
27925;SDS011;15267;47.838;12.128;2022-09-09T11:19:46;2.28;;;1.92;;
27925;SDS011;15267;47.838;12.128;2022-09-09T11:24:43;3.33;;;1.88;;
27925;SDS011;15267;47.838;12.128;2022-09-09T11:27:30;5.65;;;2.25;;
27925;SDS011;15267;47.838;12.128;2022-09-09T11:32:43;3.38;;;2.13;;
27925;SDS011;15267;47.838;12.128;2022-09-09T11:35:25;3.50;;;2.03;;
27925;SDS011;15267;47.838;12.128;2022-09-09T11:40:25;4.35;;;2.03;;
27925;SDS011;15267;47.838;12.128;2022-09-09T11:43:05;4.63;;;2.10;;
27925;SDS011;15267;47.838;12.128;2022-09-09T11:45:34;5.10;;;2.47;;
27925;SDS011;15267;47.838;12.128;2022-09-09T11:48:02;8.85;;;2.92;;
27925;SDS011;15267;47.838;12.128;2022-09-09T11:50:35;3.50;;;1.90;;
27925;SDS011;15267;47.838;12.128;2022-09-09T11:53:03;6.65;;;2.22;;
27925;SDS011;15267;47.838;12.128;2022-09-09T11:55:31;3.50;;;1.98;;
27925;SDS011;15267;47.838;12.128;2022-09-09T12:06:07;3.30;;;1.73;;
27925;SDS011;15267;47.838;12.128;2022-09-09T12:08:35;4.20;;;2.08;;
27925;SDS011;15267;47.838;12.128;2022-09-09T12:11:01;2.92;;;1.83;;
27925;SDS011;15267;47.838;12.128;2022-09-09T12:13:30;3.60;;;2.13;;
27925;SDS011;15267;47.838;12.128;2022-09-09T12:15:57;3.28;;;1.80;;
27925;SDS011;15267;47.838;12.128;2022-09-09T12:18:33;2.30;;;1.70;;
27925;SDS011;15267;47.838;12.128;2022-09-09T12:31:23;3.53;;;1.55;;
27925;SDS011;15267;47.838;12.128;2022-09-09T12:33:50;3.63;;;1.40;;
27925;SDS011;15267;47.838;12.128;2022-09-09T12:36:29;2.63;;;1.35;;
27925;SDS011;15267;47.838;12.128;2022-09-09T12:38:56;3.53;;;1.20;;
27925;SDS011;15267;47.838;12.128;2022-09-09T12:41:25;2.08;;;1.20;;
27925;SDS011;15267;47.838;12.128;2022-09-09T12:43:51;2.45;;;0.90;;
27925;SDS011;15267;47.838;12.128;2022-09-09T12:46:33;3.10;;;1.23;;
27925;SDS011;15267;47.838;12.128;2022-09-09T12:49:01;1.23;;;0.80;;
27925;SDS011;15267;47.838;12.128;2022-09-09T12:51:28;2.42;;;0.90;;
27925;SDS011;15267;47.838;12.128;2022-09-09T12:53:55;2.35;;;1.10;;
27925;SDS011;15267;47.838;12.128;2022-09-09T12:56:22;2.85;;;1.00;;
27925;SDS011;15267;47.838;12.128;2022-09-09T12:58:51;1.83;;;1.00;;
27925;SDS011;15267;47.838;12.128;2022-09-09T13:01:22;1.98;;;1.10;;
27925;SDS011;15267;47.838;12.128;2022-09-09T13:03:48;4.07;;;1.20;;
27925;SDS011;15267;47.838;12.128;2022-09-09T13:06:19;3.22;;;1.80;;
27925;SDS011;15267;47.838;12.128;2022-09-09T13:08:47;2.40;;;1.20;;
27925;SDS011;15267;47.838;12.128;2022-09-09T13:11:14;2.70;;;1.20;;
27925;SDS011;15267;47.838;12.128;2022-09-09T13:13:41;1.42;;;1.08;;
27925;SDS011;15267;47.838;12.128;2022-09-09T13:16:21;1.88;;;1.20;;
27925;SDS011;15267;47.838;12.128;2022-09-09T13:18:47;1.70;;;1.10;;
27925;SDS011;15267;47.838;12.128;2022-09-09T13:21:14;3.13;;;1.35;;
27925;SDS011;15267;47.838;12.128;2022-09-09T13:23:40;2.80;;;1.27;;
27925;SDS011;15267;47.838;12.128;2022-09-09T13:26:19;2.78;;;1.30;;
27925;SDS011;15267;47.838;12.128;2022-09-09T13:28:49;1.73;;;1.50;;
27925;SDS011;15267;47.838;12.128;2022-09-09T13:31:19;2.00;;;1.13;;
27925;SDS011;15267;47.838;12.128;2022-09-09T13:33:46;2.45;;;1.33;;
27925;SDS011;15267;47.838;12.128;2022-09-09T13:36:12;3.65;;;1.40;;
27925;SDS011;15267;47.838;12.128;2022-09-09T13:41:21;2.55;;;1.20;;
27925;SDS011;15267;47.838;12.128;2022-09-09T13:43:48;1.65;;;1.10;;
27925;SDS011;15267;47.838;12.128;2022-09-09T13:46:25;3.92;;;1.65;;
27925;SDS011;15267;47.838;12.128;2022-09-09T13:48:59;2.50;;;1.50;;
27925;SDS011;15267;47.838;12.128;2022-09-09T13:51:28;2.47;;;1.40;;
27925;SDS011;15267;47.838;12.128;2022-09-09T13:53:55;3.75;;;1.30;;
27925;SDS011;15267;47.838;12.128;2022-09-09T13:56:21;2.65;;;1.40;;
27925;SDS011;15267;47.838;12.128;2022-09-09T13:58:47;2.25;;;1.83;;
27925;SDS011;15267;47.838;12.128;2022-09-09T14:01:13;3.95;;;2.00;;
27925;SDS011;15267;47.838;12.128;2022-09-09T14:03:39;1.80;;;1.42;;
27925;SDS011;15267;47.838;12.128;2022-09-09T14:06:05;1.25;;;0.88;;
27925;SDS011;15267;47.838;12.128;2022-09-09T14:08:32;1.98;;;1.00;;
27925;SDS011;15267;47.838;12.128;2022-09-09T14:11:02;2.28;;;1.00;;
27925;SDS011;15267;47.838;12.128;2022-09-09T14:13:28;1.48;;;1.20;;
27925;SDS011;15267;47.838;12.128;2022-09-09T14:15:54;2.75;;;1.10;;
27925;SDS011;15267;47.838;12.128;2022-09-09T14:18:20;2.17;;;1.00;;
27925;SDS011;15267;47.838;12.128;2022-09-09T14:20:48;2.20;;;1.00;;
27925;SDS011;15267;47.838;12.128;2022-09-09T14:23:15;2.30;;;0.85;;
27925;SDS011;15267;47.838;12.128;2022-09-09T14:25:41;1.95;;;0.60;;
27925;SDS011;15267;47.838;12.128;2022-09-09T14:28:11;3.10;;;0.63;;
27925;SDS011;15267;47.838;12.128;2022-09-09T14:30:38;1.00;;;0.80;;
27925;SDS011;15267;47.838;12.128;2022-09-09T14:33:04;1.98;;;0.60;;
27925;SDS011;15267;47.838;12.128;2022-09-09T14:35:30;1.65;;;0.80;;
27925;SDS011;15267;47.838;12.128;2022-09-09T14:37:58;1.42;;;0.60;;
27925;SDS011;15267;47.838;12.128;2022-09-09T14:40:25;1.40;;;0.60;;
27925;SDS011;15267;47.838;12.128;2022-09-09T14:42:52;1.42;;;0.60;;
27925;SDS011;15267;47.838;12.128;2022-09-09T14:45:18;1.45;;;0.70;;
27925;SDS011;15267;47.838;12.128;2022-09-09T14:47:46;1.40;;;0.63;;
27925;SDS011;15267;47.838;12.128;2022-09-09T14:50:12;0.82;;;0.50;;
27925;SDS011;15267;47.838;12.128;2022-09-09T14:52:38;1.65;;;0.80;;
27925;SDS011;15267;47.838;12.128;2022-09-09T14:55:04;2.42;;;0.60;;
27925;SDS011;15267;47.838;12.128;2022-09-09T14:57:31;0.88;;;0.60;;
27925;SDS011;15267;47.838;12.128;2022-09-09T14:59:57;1.30;;;0.63;;
27925;SDS011;15267;47.838;12.128;2022-09-09T15:02:23;1.70;;;0.50;;
27925;SDS011;15267;47.838;12.128;2022-09-09T15:04:48;2.45;;;0.52;;
27925;SDS011;15267;47.838;12.128;2022-09-09T15:07:15;1.25;;;0.45;;
27925;SDS011;15267;47.838;12.128;2022-09-09T15:09:41;1.77;;;0.50;;
27925;SDS011;15267;47.838;12.128;2022-09-09T15:12:07;0.80;;;0.43;;
27925;SDS011;15267;47.838;12.128;2022-09-09T15:14:33;0.63;;;0.50;;
27925;SDS011;15267;47.838;12.128;2022-09-09T15:17:00;0.95;;;0.50;;
27925;SDS011;15267;47.838;12.128;2022-09-09T15:19:26;1.48;;;0.50;;
27925;SDS011;15267;47.838;12.128;2022-09-09T15:21:52;0.55;;;0.50;;
27925;SDS011;15267;47.838;12.128;2022-09-09T15:24:19;1.02;;;0.60;;
27925;SDS011;15267;47.838;12.128;2022-09-09T15:26:46;0.70;;;0.40;;
27925;SDS011;15267;47.838;12.128;2022-09-09T15:29:11;1.55;;;0.60;;
27925;SDS011;15267;47.838;12.128;2022-09-09T15:31:37;0.40;;;0.40;;
27925;SDS011;15267;47.838;12.128;2022-09-09T15:34:04;1.30;;;0.50;;
27925;SDS011;15267;47.838;12.128;2022-09-09T15:38:59;0.73;;;0.50;;
27925;SDS011;15267;47.838;12.128;2022-09-09T15:41:26;1.63;;;0.45;;
27925;SDS011;15267;47.838;12.128;2022-09-09T15:43:52;2.30;;;0.60;;
27925;SDS011;15267;47.838;12.128;2022-09-09T15:46:24;1.55;;;0.60;;
27925;SDS011;15267;47.838;12.128;2022-09-09T15:48:52;0.50;;;0.40;;
27925;SDS011;15267;47.838;12.128;2022-09-09T15:51:19;1.13;;;0.60;;
27925;SDS011;15267;47.838;12.128;2022-09-09T15:53:45;1.40;;;0.60;;
27925;SDS011;15267;47.838;12.128;2022-09-09T15:56:11;1.55;;;0.50;;
27925;SDS011;15267;47.838;12.128;2022-09-09T15:58:37;1.02;;;0.60;;
27925;SDS011;15267;47.838;12.128;2022-09-09T16:01:03;0.70;;;0.47;;
27925;SDS011;15267;47.838;12.128;2022-09-09T16:03:30;1.80;;;0.60;;
27925;SDS011;15267;47.838;12.128;2022-09-09T16:05:56;0.88;;;0.57;;
27925;SDS011;15267;47.838;12.128;2022-09-09T16:08:22;2.15;;;0.90;;
27925;SDS011;15267;47.838;12.128;2022-09-09T16:10:48;0.85;;;0.60;;
27925;SDS011;15267;47.838;12.128;2022-09-09T16:13:14;0.95;;;0.60;;
27925;SDS011;15267;47.838;12.128;2022-09-09T16:15:39;1.30;;;0.70;;
27925;SDS011;15267;47.838;12.128;2022-09-09T16:18:05;1.58;;;0.70;;
27925;SDS011;15267;47.838;12.128;2022-09-09T16:20:31;0.55;;;0.40;;
27925;SDS011;15267;47.838;12.128;2022-09-09T16:22:57;1.10;;;0.43;;
27925;SDS011;15267;47.838;12.128;2022-09-09T16:25:23;1.20;;;0.50;;
27925;SDS011;15267;47.838;12.128;2022-09-09T16:27:49;1.60;;;0.77;;
27925;SDS011;15267;47.838;12.128;2022-09-09T16:30:15;2.58;;;0.70;;
27925;SDS011;15267;47.838;12.128;2022-09-09T16:32:41;0.82;;;0.55;;
27925;SDS011;15267;47.838;12.128;2022-09-09T16:35:07;1.65;;;0.50;;
27925;SDS011;15267;47.838;12.128;2022-09-09T16:37:33;0.77;;;0.60;;
27925;SDS011;15267;47.838;12.128;2022-09-09T16:39:59;1.50;;;0.50;;